Time;durP1;ratioP1;P1;durP2;ratioP2;P2;SDS_P1;SDS_P2;PMS_P1;PMS_P2;Temp;Humidity;BMP_temperature;BMP_pressure;BME280_temperature;BME280_humidity;BME280_pressure;Samples;Min_cycle;Max_cycle;Signal;HPM_P1;HPM_P2
2023/07/08 00:02:12;;;;;;;10.93;6.60;;;21.70;99.90;;;;;;5029533;28;20396;-80
2023/07/08 00:04:39;;;;;;;11.70;6.93;;;21.60;99.90;;;;;;5029047;28;20449;-79
2023/07/08 00:07:09;;;;;;;12.10;6.10;;;21.50;99.90;;;;;;5029438;28;20766;-80
2023/07/08 00:09:34;;;;;;;9.23;6.50;;;21.50;99.90;;;;;;5027547;28;20606;-80
2023/07/08 00:12:00;;;;;;;6.93;5.83;;;21.50;99.90;;;;;;5027799;28;20919;-76
2023/07/08 00:14:25;;;;;;;9.33;6.43;;;21.40;99.90;;;;;;5028799;28;20182;-76
2023/07/08 00:16:51;;;;;;;7.27;6.40;;;21.40;99.90;;;;;;5029187;28;20705;-76
2023/07/08 00:19:23;;;;;;;10.73;7.10;;;21.30;99.90;;;;;;5029017;28;20190;-79
2023/07/08 00:21:51;;;;;;;9.57;6.87;;;21.30;99.90;;;;;;5027632;28;20434;-76
2023/07/08 00:24:17;;;;;;;8.07;6.43;;;21.30;99.90;;;;;;5027658;28;20604;-80
2023/07/08 00:26:42;;;;;;;7.00;6.10;;;21.20;99.90;;;;;;5027504;28;20432;-76
2023/07/08 00:29:12;;;;;;;7.47;6.70;;;21.20;99.90;;;;;;5027812;28;20183;-76
2023/07/08 00:31:38;;;;;;;8.83;6.70;;;21.20;99.90;;;;;;5028894;28;20356;-80
2023/07/08 00:34:04;;;;;;;7.47;6.40;;;21.20;99.90;;;;;;5027422;28;20882;-80
2023/07/08 00:36:30;;;;;;;7.80;6.83;;;21.20;99.90;;;;;;5028609;28;20214;-79
2023/07/08 00:38:57;;;;;;;8.57;6.90;;;21.20;99.90;;;;;;5028716;28;20489;-76
2023/07/08 00:41:28;;;;;;;8.70;6.80;;;21.10;99.90;;;;;;5028277;28;20426;-80
2023/07/08 00:43:58;;;;;;;8.47;7.07;;;21.10;99.90;;;;;;5028729;28;20435;-80
2023/07/08 00:46:27;;;;;;;9.60;7.07;;;21.10;99.90;;;;;;5028519;28;20423;-80
2023/07/08 00:49:22;;;;;;;9.63;6.63;;;21.00;99.90;;;;;;5028596;28;20435;-80
2023/07/08 00:51:48;;;;;;;9.80;7.10;;;21.00;99.90;;;;;;5028191;28;20967;-80
2023/07/08 00:54:16;;;;;;;7.80;7.10;;;21.00;99.90;;;;;;5035209;28;20569;-76
2023/07/08 00:56:53;;;;;;;9.83;7.40;;;20.90;99.90;;;;;;5029971;28;20851;-80
2023/07/08 00:59:34;;;;;;;9.80;6.50;;;20.90;99.90;;;;;;5047804;28;20434;-76
2023/07/08 01:02:04;;;;;;;8.40;6.60;;;20.90;99.90;;;;;;5047854;28;20394;-80
2023/07/08 01:04:42;;;;;;;7.20;6.50;;;20.90;99.90;;;;;;5048267;28;20919;-77
2023/07/08 01:07:08;;;;;;;8.73;7.63;;;20.80;99.90;;;;;;5048485;28;20387;-76
2023/07/08 01:09:38;;;;;;;10.03;7.40;;;20.80;99.90;;;;;;5029983;28;20454;-80
2023/07/08 01:12:10;;;;;;;8.27;6.90;;;20.80;99.90;;;;;;5029706;28;20430;-80
2023/07/08 01:14:38;;;;;;;8.20;7.30;;;20.80;99.90;;;;;;5048176;28;20438;-76
2023/07/08 01:17:04;;;;;;;9.33;6.13;;;20.70;99.90;;;;;;5048094;28;20428;-77
2023/07/08 01:19:33;;;;;;;9.83;6.33;;;20.70;99.90;;;;;;5047902;28;20487;-76
2023/07/08 01:22:06;;;;;;;7.57;6.30;;;20.80;99.90;;;;;;5047342;28;20170;-80
2023/07/08 01:24:39;;;;;;;7.20;6.50;;;20.80;99.90;;;;;;5047476;28;20430;-76
2023/07/08 01:27:09;;;;;;;7.17;5.67;;;20.80;99.90;;;;;;5029683;28;21047;-76
2023/07/08 01:29:35;;;;;;;7.77;6.50;;;20.70;99.90;;;;;;5046571;28;20434;-76
2023/07/08 01:32:05;;;;;;;7.60;6.90;;;20.70;99.90;;;;;;5047466;28;20461;-80
2023/07/08 01:34:32;;;;;;;8.40;6.40;;;20.70;99.90;;;;;;5047373;28;20224;-79
2023/07/08 01:37:01;;;;;;;7.13;6.43;;;20.70;99.90;;;;;;5029394;28;20520;-76
2023/07/08 01:39:28;;;;;;;7.47;6.77;;;20.70;99.90;;;;;;5047178;28;20434;-76
2023/07/08 01:41:56;;;;;;;7.07;6.33;;;20.60;99.90;;;;;;5047580;28;20407;-80
2023/07/08 01:44:35;;;;;;;10.43;7.30;;;20.60;99.90;;;;;;5047446;28;20957;-80
2023/07/08 01:47:15;;;;;;;8.77;7.70;;;20.60;99.90;;;;;;5047255;28;20406;-80
2023/07/08 01:49:42;;;;;;;7.30;6.60;;;20.60;99.90;;;;;;5047539;28;20438;-77
2023/07/08 01:52:10;;;;;;;7.50;6.63;;;20.60;99.90;;;;;;5047730;28;20403;-76
2023/07/08 01:54:36;;;;;;;10.17;7.87;;;20.60;99.90;;;;;;5046789;28;20952;-76
2023/07/08 01:57:02;;;;;;;9.13;6.90;;;20.60;99.90;;;;;;5047104;28;20492;-76
2023/07/08 01:59:28;;;;;;;7.50;6.73;;;20.60;99.90;;;;;;5028878;28;20221;-80
2023/07/08 02:01:55;;;;;;;8.00;7.30;;;20.60;99.90;;;;;;5029041;28;20454;-81
2023/07/08 02:04:25;;;;;;;8.53;6.87;;;20.60;99.90;;;;;;5046475;28;20177;-79
2023/07/08 02:06:56;;;;;;;8.10;7.30;;;20.60;99.90;;;;;;5047065;28;20934;-80
2023/07/08 02:09:22;;;;;;;9.13;7.00;;;20.60;99.90;;;;;;5028844;28;20509;-80
2023/07/08 02:11:48;;;;;;;8.73;7.07;;;20.60;99.90;;;;;;5047035;28;20461;-77
2023/07/08 02:14:13;;;;;;;10.10;7.90;;;20.60;99.90;;;;;;5028208;28;20446;-77
2023/07/08 02:16:39;;;;;;;9.50;7.00;;;20.60;99.90;;;;;;5046929;28;20229;-76
2023/07/08 02:19:05;;;;;;;15.27;8.03;;;20.50;99.90;;;;;;5028775;28;20232;-76
2023/07/08 02:21:31;;;;;;;8.90;7.40;;;20.50;99.90;;;;;;5046417;28;20189;-76
2023/07/08 02:23:57;;;;;;;8.50;7.00;;;20.50;99.90;;;;;;5046552;28;20170;-80
2023/07/08 02:26:23;;;;;;;10.40;7.80;;;20.50;99.90;;;;;;5028501;28;20205;-76
2023/07/08 02:28:48;;;;;;;11.10;7.33;;;20.50;99.90;;;;;;5027890;28;20588;-76
2023/07/08 02:31:14;;;;;;;13.80;8.10;;;20.50;99.90;;;;;;5046687;28;20496;-76
2023/07/08 02:33:40;;;;;;;8.80;7.63;;;20.50;99.90;;;;;;5045354;28;20190;-76
2023/07/08 02:36:06;;;;;;;7.60;6.90;;;20.40;99.90;;;;;;5046011;28;20463;-80
2023/07/08 02:38:31;;;;;;;8.43;7.63;;;20.40;99.90;;;;;;5028413;28;20178;-80
2023/07/08 02:40:58;;;;;;;8.77;7.87;;;20.30;99.90;;;;;;5045930;28;20229;-76
2023/07/08 02:43:23;;;;;;;9.93;7.50;;;20.30;99.90;;;;;;5046193;28;20274;-76
2023/07/08 02:45:52;;;;;;;9.70;7.23;;;20.30;99.90;;;;;;5027902;28;20497;-76
2023/07/08 02:48:19;;;;;;;8.47;7.50;;;20.20;99.90;;;;;;5046194;28;20173;-76
2023/07/08 02:50:45;;;;;;;8.17;7.37;;;20.20;99.90;;;;;;5045763;28;20430;-76
2023/07/08 02:53:11;;;;;;;10.10;7.60;;;20.20;99.90;;;;;;5045956;28;20403;-79
2023/07/08 02:55:36;;;;;;;9.53;7.00;;;20.20;99.90;;;;;;5045683;28;20496;-76
2023/07/08 02:58:02;;;;;;;9.47;7.67;;;20.20;99.90;;;;;;5045961;28;20181;-79
2023/07/08 03:00:28;;;;;;;9.60;7.83;;;20.10;99.90;;;;;;5045434;28;20729;-76
2023/07/08 03:02:54;;;;;;;9.13;6.93;;;20.10;99.90;;;;;;5046084;28;20215;-80
2023/07/08 03:05:19;;;;;;;8.53;6.80;;;20.10;99.90;;;;;;5045650;28;20212;-76
2023/07/08 03:07:45;;;;;;;10.70;7.67;;;20.10;99.90;;;;;;5046026;28;20485;-76
2023/07/08 03:10:11;;;;;;;9.63;7.50;;;20.10;99.90;;;;;;5027813;28;20217;-76
2023/07/08 03:12:36;;;;;;;8.40;7.50;;;20.10;99.90;;;;;;5045827;28;20181;-78
2023/07/08 03:15:03;;;;;;;9.90;7.53;;;20.10;99.90;;;;;;5045590;28;20223;-80
2023/07/08 03:17:28;;;;;;;7.23;6.53;;;20.10;99.90;;;;;;5045810;28;20176;-76
2023/07/08 03:19:54;;;;;;;15.70;7.23;;;20.10;99.90;;;;;;5045352;28;20448;-79
2023/07/08 03:22:20;;;;;;;8.20;7.30;;;20.10;99.90;;;;;;5045786;28;20587;-76
2023/07/08 03:24:46;;;;;;;7.73;6.57;;;20.10;99.90;;;;;;5044681;28;20754;-79
2023/07/08 03:27:13;;;;;;;7.93;6.77;;;20.00;99.90;;;;;;5045308;28;20174;-79
2023/07/08 03:29:39;;;;;;;10.17;7.90;;;20.00;99.90;;;;;;5026797;28;20630;-80
2023/07/08 03:32:06;;;;;;;8.00;7.20;;;20.10;99.90;;;;;;5045781;28;20501;-76
2023/07/08 03:34:31;;;;;;;9.80;7.87;;;20.10;99.90;;;;;;5026954;28;20313;-79
2023/07/08 03:36:57;;;;;;;13.53;7.80;;;20.10;99.90;;;;;;5044836;28;20557;-75
2023/07/08 03:39:25;;;;;;;12.13;7.10;;;20.10;99.90;;;;;;5027414;28;20224;-80
2023/07/08 03:41:52;;;;;;;8.47;6.80;;;20.10;99.90;;;;;;5045324;28;20173;-76
2023/07/08 03:44:18;;;;;;;8.63;6.90;;;20.20;99.90;;;;;;5045353;28;20435;-79
2023/07/08 03:46:45;;;;;;;9.07;7.67;;;20.20;99.90;;;;;;5027421;28;20473;-75
2023/07/08 03:49:11;;;;;;;10.90;6.70;;;20.20;99.90;;;;;;5045620;28;20774;-75
2023/07/08 03:51:39;;;;;;;8.63;7.30;;;20.30;99.90;;;;;;5044867;28;20415;-75
2023/07/08 03:54:06;;;;;;;7.97;7.17;;;20.30;99.90;;;;;;5027345;28;20238;-80
2023/07/08 03:56:31;;;;;;;13.10;7.43;;;20.30;99.90;;;;;;5045077;28;20465;-79
2023/07/08 03:58:57;;;;;;;10.50;7.10;;;20.30;99.90;;;;;;5045612;28;20859;-80
2023/07/08 04:01:25;;;;;;;9.83;7.30;;;20.30;99.90;;;;;;5045033;28;20507;-75
2023/07/08 04:03:56;;;;;;;10.33;7.50;;;20.30;99.90;;;;;;5045321;28;20411;-79
2023/07/08 04:06:23;;;;;;;9.40;7.60;;;20.40;99.90;;;;;;5045202;28;20530;-76
2023/07/08 04:08:49;;;;;;;7.83;6.83;;;20.40;99.90;;;;;;5044857;28;20414;-78
2023/07/08 04:11:23;;;;;;;10.60;7.60;;;20.50;99.90;;;;;;5045218;28;20478;-75
2023/07/08 04:13:49;;;;;;;9.17;7.00;;;20.50;99.90;;;;;;5044786;28;21177;-79
2023/07/08 04:16:27;;;;;;;11.63;7.77;;;20.50;99.90;;;;;;5045283;28;20965;-75
2023/07/08 04:18:54;;;;;;;8.27;7.10;;;20.60;99.90;;;;;;5045070;28;20977;-76
2023/07/08 04:21:20;;;;;;;7.83;6.60;;;20.60;99.90;;;;;;5044910;28;20423;-79
2023/07/08 04:23:46;;;;;;;9.10;6.00;;;20.70;99.90;;;;;;5044931;28;20415;-79
2023/07/08 04:26:12;;;;;;;9.10;6.93;;;20.80;99.90;;;;;;5044774;28;20777;-79
2023/07/08 04:28:38;;;;;;;9.00;6.00;;;20.90;99.90;;;;;;5044817;28;20201;-79
2023/07/08 04:31:04;;;;;;;9.37;6.60;;;20.90;99.90;;;;;;5026449;28;20439;-79
2023/07/08 04:33:30;;;;;;;9.90;7.00;;;21.00;99.90;;;;;;5027199;28;20177;-75
2023/07/08 04:35:56;;;;;;;7.87;7.10;;;21.10;99.90;;;;;;5044832;28;20465;-79
2023/07/08 04:38:24;;;;;;;9.03;6.47;;;21.10;99.90;;;;;;5048011;28;20456;-79
2023/07/08 04:40:53;;;;;;;8.50;6.07;;;21.20;99.90;;;;;;5047982;28;20570;-75
2023/07/08 04:43:21;;;;;;;8.83;7.20;;;21.20;99.90;;;;;;5048660;28;20452;-79
2023/07/08 04:45:52;;;;;;;8.47;6.67;;;21.30;99.90;;;;;;5047899;28;20488;-75
2023/07/08 04:48:21;;;;;;;10.20;6.67;;;21.40;99.90;;;;;;5048551;28;20405;-79
2023/07/08 04:50:49;;;;;;;8.27;6.20;;;21.50;99.90;;;;;;5047886;28;20437;-76
2023/07/08 04:53:15;;;;;;;9.20;7.47;;;21.50;99.90;;;;;;5030578;28;20433;-75
2023/07/08 04:55:50;;;;;;;7.73;6.50;;;21.60;99.90;;;;;;5047994;28;20482;-75
2023/07/08 04:58:15;;;;;;;7.33;5.90;;;21.70;99.90;;;;;;5030662;28;20829;-79
2023/07/08 05:00:41;;;;;;;9.70;6.70;;;21.80;99.90;;;;;;5047970;28;20534;-75
2023/07/08 05:03:07;;;;;;;6.33;5.60;;;21.90;99.90;;;;;;5030189;28;20749;-76
2023/07/08 05:05:32;;;;;;;7.30;6.57;;;22.00;99.90;;;;;;5047722;28;20205;-76
2023/07/08 05:07:58;;;;;;;8.53;6.87;;;22.00;99.90;;;;;;5048407;28;20662;-79
2023/07/08 05:10:24;;;;;;;7.50;6.80;;;22.20;99.90;;;;;;5029834;28;20563;-76
2023/07/08 05:12:50;;;;;;;7.37;6.63;;;22.20;99.90;;;;;;5030224;28;20174;-76
2023/07/08 05:15:16;;;;;;;8.33;5.73;;;22.30;99.90;;;;;;5047912;28;20300;-78
2023/07/08 05:17:42;;;;;;;9.07;5.97;;;22.40;99.90;;;;;;5047924;28;20173;-75
2023/07/08 05:20:10;;;;;;;9.20;5.93;;;22.50;99.90;;;;;;5047694;28;20938;-77
2023/07/08 05:22:36;;;;;;;8.30;6.53;;;22.60;99.90;;;;;;5047828;28;20822;-75
2023/07/08 05:25:03;;;;;;;8.13;5.93;;;22.70;99.90;;;;;;5047540;28;20439;-76
2023/07/08 05:27:29;;;;;;;8.43;6.50;;;22.80;99.90;;;;;;5048077;28;20409;-77
2023/07/08 05:29:54;;;;;;;11.03;5.90;;;22.90;99.90;;;;;;5029012;28;21149;-74
2023/07/08 05:32:20;;;;;;;8.40;6.30;;;23.00;99.90;;;;;;5049760;28;20230;-77
2023/07/08 05:34:46;;;;;;;8.50;5.83;;;23.10;99.90;;;;;;5047124;28;20198;-76
2023/07/08 05:37:13;;;;;;;7.30;5.73;;;23.20;99.90;;;;;;5047629;28;20463;-75
2023/07/08 05:39:39;;;;;;;7.67;6.30;;;23.30;99.90;;;;;;5046349;28;20933;-76
2023/07/08 05:42:05;;;;;;;25.83;7.83;;;23.40;99.90;;;;;;5029526;28;20432;-76
2023/07/08 05:44:31;;;;;;;9.07;6.57;;;23.40;99.90;;;;;;5029097;28;20431;-76
2023/07/08 05:46:58;;;;;;;7.30;6.37;;;23.50;99.90;;;;;;5029211;28;20640;-78
2023/07/08 05:49:23;;;;;;;7.30;5.97;;;23.60;99.90;;;;;;5046424;28;20195;-76
2023/07/08 05:51:49;;;;;;;6.07;5.30;;;23.70;99.90;;;;;;5046973;28;20437;-77
2023/07/08 05:54:15;;;;;;;6.67;5.57;;;23.80;99.90;;;;;;5028624;28;20256;-76
2023/07/08 05:56:40;;;;;;;7.83;6.47;;;23.80;99.90;;;;;;5046388;28;20239;-78
2023/07/08 05:59:06;;;;;;;9.63;5.80;;;23.90;99.90;;;;;;5047153;28;20754;-78
2023/07/08 06:01:32;;;;;;;6.30;5.70;;;23.90;99.90;;;;;;5046573;28;20203;-76
2023/07/08 06:03:59;;;;;;;6.37;5.60;;;23.90;99.90;;;;;;5027006;28;20181;-77
2023/07/08 06:06:25;;;;;;;5.37;4.87;;;23.90;99.90;;;;;;5025321;28;20927;-77
2023/07/08 06:08:51;;;;;;;6.63;5.33;;;24.00;99.90;;;;;;5041888;28;20453;-76
2023/07/08 06:11:17;;;;;;;7.10;5.10;;;24.10;99.90;;;;;;5041980;28;20464;-79
2023/07/08 06:13:43;;;;;;;7.20;5.37;;;24.10;99.90;;;;;;5042120;28;21013;-79
2023/07/08 06:16:08;;;;;;;10.00;5.23;;;24.10;99.90;;;;;;5042495;28;20674;-79
2023/07/08 06:18:34;;;;;;;7.27;5.10;;;24.20;99.90;;;;;;5044692;28;20511;-77
2023/07/08 06:21:01;;;;;;;6.13;5.30;;;24.20;99.90;;;;;;5044562;28;20426;-77
2023/07/08 06:23:27;;;;;;;6.23;5.60;;;24.30;99.90;;;;;;5046771;28;20224;-79
2023/07/08 06:25:53;;;;;;;6.37;4.83;;;24.40;99.90;;;;;;5046131;28;21001;-79
2023/07/08 06:28:20;;;;;;;6.63;5.83;;;24.40;99.90;;;;;;5046826;28;20402;-79
2023/07/08 06:30:46;;;;;;;5.37;4.80;;;24.50;99.90;;;;;;5027814;28;20279;-76
2023/07/08 06:33:12;;;;;;;5.33;4.83;;;24.60;99.90;;;;;;5046787;28;20694;-76
2023/07/08 06:35:39;;;;;;;5.00;4.50;;;24.70;99.90;;;;;;5028126;28;20499;-76
2023/07/08 06:38:06;;;;;;;6.37;5.27;;;24.70;99.90;;;;;;5046768;28;20930;-79
2023/07/08 06:40:31;;;;;;;11.53;5.57;;;24.80;99.90;;;;;;5045923;28;20545;-78
2023/07/08 06:42:57;;;;;;;4.73;4.33;;;24.80;99.90;;;;;;5045771;28;20877;-77
2023/07/08 06:45:23;;;;;;;6.50;4.87;;;24.80;99.90;;;;;;5046071;28;20442;-76
2023/07/08 06:47:48;;;;;;;5.63;4.73;;;24.90;99.90;;;;;;5046029;28;20173;-80
2023/07/08 06:50:14;;;;;;;6.10;5.10;;;25.00;99.90;;;;;;5045843;28;20194;-76
2023/07/08 06:52:40;;;;;;;8.60;4.90;;;25.00;99.90;;;;;;5028082;28;20260;-75
2023/07/08 06:55:08;;;;;;;5.90;4.77;;;25.20;99.90;;;;;;5027534;28;20241;-80
2023/07/08 06:57:34;;;;;;;5.30;4.80;;;25.20;99.90;;;;;;5028187;28;20193;-79
2023/07/08 07:00:00;;;;;;;4.90;4.40;;;25.20;99.90;;;;;;5027458;28;20451;-79
2023/07/08 07:02:27;;;;;;;6.40;4.20;;;25.30;99.90;;;;;;5046238;28;20449;-79
2023/07/08 07:04:53;;;;;;;7.13;5.03;;;25.30;99.90;;;;;;5045544;28;20443;-80
2023/07/08 07:07:18;;;;;;;6.60;4.60;;;25.40;99.90;;;;;;5046199;28;20410;-80
2023/07/08 07:09:44;;;;;;;5.33;4.40;;;25.40;99.90;;;;;;5045388;28;20201;-76
2023/07/08 07:12:09;;;;;;;5.37;4.27;;;25.50;99.90;;;;;;5046006;28;20698;-75
2023/07/08 07:14:35;;;;;;;5.07;4.57;;;25.50;99.90;;;;;;5045640;28;20197;-76
2023/07/08 07:17:01;;;;;;;4.50;4.10;;;25.60;99.90;;;;;;5027510;28;20205;-81
2023/07/08 07:19:27;;;;;;;5.60;4.40;;;25.60;99.90;;;;;;5045218;28;20437;-76
2023/07/08 07:21:53;;;;;;;6.93;4.83;;;25.70;99.90;;;;;;5045394;28;20207;-81
2023/07/08 07:24:19;;;;;;;5.00;4.60;;;25.80;99.10;;;;;;5045483;28;20454;-75
2023/07/08 07:26:44;;;;;;;5.10;4.60;;;25.80;99.90;;;;;;5045575;28;20448;-81
2023/07/08 07:29:10;;;;;;;7.93;3.83;;;25.80;99.90;;;;;;5045613;28;20484;-87
2023/07/08 07:31:36;;;;;;;5.30;4.07;;;25.90;99.60;;;;;;5045004;28;20200;-78
2023/07/08 07:34:02;;;;;;;4.53;4.13;;;25.90;99.90;;;;;;5027020;28;20262;-86
2023/07/08 07:36:28;;;;;;;5.37;3.90;;;26.00;99.90;;;;;;5027431;28;20241;-77
2023/07/08 07:38:54;;;;;;;4.77;4.37;;;26.00;99.90;;;;;;5045581;28;20184;-76
2023/07/08 07:41:20;;;;;;;4.53;3.87;;;26.10;99.80;;;;;;5045515;28;20419;-76
2023/07/08 07:43:46;;;;;;;5.40;4.60;;;26.00;99.90;;;;;;5026039;28;20426;-76
2023/07/08 07:46:12;;;;;;;4.50;3.90;;;26.20;99.90;;;;;;5045384;28;20771;-81
2023/07/08 07:48:38;;;;;;;9.07;3.00;;;26.20;99.90;;;;;;5027416;28;20733;-76
2023/07/08 07:51:05;;;;;;;4.27;3.77;;;26.20;99.90;;;;;;5026973;28;20523;-83
2023/07/08 07:53:31;;;;;;;4.23;3.43;;;26.20;99.90;;;;;;5027087;28;20327;-83
2023/07/08 07:56:01;;;;;;;6.80;3.80;;;26.30;99.90;;;;;;5044816;28;20578;-76
2023/07/08 07:58:27;;;;;;;4.00;3.70;;;26.30;98.70;;;;;;5045148;28;20565;-83
2023/07/08 08:00:53;;;;;;;4.20;3.87;;;26.50;99.90;;;;;;5026859;28;20737;-82
2023/07/08 08:03:20;;;;;;;5.30;4.17;;;26.50;98.60;;;;;;5045392;28;20253;-77
2023/07/08 08:05:45;;;;;;;7.53;3.90;;;26.50;99.50;;;;;;5026962;28;20611;-85
2023/07/08 08:08:11;;;;;;;4.17;3.80;;;26.50;99.90;;;;;;5027748;28;20446;-82
2023/07/08 08:10:36;;;;;;;4.13;3.40;;;26.40;99.90;;;;;;5027158;28;20245;-77
2023/07/08 08:13:03;;;;;;;4.23;3.73;;;26.50;99.90;;;;;;5048004;28;20244;-81
2023/07/08 08:15:29;;;;;;;4.50;4.00;;;26.60;99.30;;;;;;5049207;28;20589;-78
2023/07/08 08:17:55;;;;;;;5.90;3.80;;;26.70;99.20;;;;;;5031110;28;20449;-77
2023/07/08 08:20:23;;;;;;;5.47;4.03;;;26.80;99.70;;;;;;5030495;28;20842;-84
2023/07/08 08:22:50;;;;;;;7.33;4.23;;;26.90;97.10;;;;;;5030749;28;20506;-77
2023/07/08 08:25:17;;;;;;;4.23;3.87;;;26.80;99.20;;;;;;5030863;28;20511;-76
2023/07/08 08:27:43;;;;;;;4.57;3.83;;;26.90;97.80;;;;;;5030337;28;20712;-84
2023/07/08 08:30:09;;;;;;;3.97;3.27;;;27.10;96.10;;;;;;5047192;28;20449;-78
2023/07/08 08:32:35;;;;;;;4.00;3.67;;;27.00;97.20;;;;;;5028856;28;20416;-85
2023/07/08 08:35:01;;;;;;;3.97;3.53;;;27.10;94.90;;;;;;5028383;28;20452;-85
2023/07/08 08:37:26;;;;;;;3.50;3.20;;;27.20;97.50;;;;;;5029610;28;20209;-80
2023/07/08 08:39:52;;;;;;;3.77;3.37;;;27.20;96.90;;;;;;5046509;28;20199;-82
2023/07/08 08:42:42;;;;;;;4.97;3.97;;;27.30;96.80;;;;;;5047420;28;20173;-76
2023/07/08 08:45:12;;;;;;;3.90;3.40;;;27.30;97.00;;;;;;5046842;28;20460;-82
2023/07/08 08:47:43;;;;;;;5.00;3.77;;;27.30;97.30;;;;;;5027866;28;20935;-82
2023/07/08 08:50:18;;;;;;;4.93;4.53;;;27.30;97.60;;;;;;5046299;28;20879;-81
2023/07/08 08:52:44;;;;;;;3.87;3.53;;;27.30;97.10;;;;;;5028668;28;20407;-77
2023/07/08 08:55:14;;;;;;;3.43;3.10;;;27.30;97.00;;;;;;5046341;28;20509;-78
2023/07/08 08:58:02;;;;;;;5.13;3.70;;;27.40;96.70;;;;;;5046681;28;20231;-79
2023/07/08 09:00:57;;;;;;;4.30;3.90;;;27.20;97.60;;;;;;5047947;28;20606;-78
2023/07/08 09:03:39;;;;;;;3.63;3.33;;;27.30;96.90;;;;;;5048361;28;20479;-79
2023/07/08 09:06:21;;;;;;;5.60;3.40;;;27.50;96.80;;;;;;5029840;28;20431;-77
2023/07/08 09:08:48;;;;;;;4.40;3.60;;;27.60;95.50;;;;;;5030064;28;20435;-78
2023/07/08 09:11:48;;;;;;;4.53;3.43;;;27.70;96.20;;;;;;5047658;28;20547;-77
2023/07/08 09:14:23;;;;;;;4.20;3.37;;;27.80;96.70;;;;;;5047843;28;20775;-77
2023/07/08 09:17:19;;;;;;;3.67;3.23;;;27.90;94.70;;;;;;5047759;28;20464;-77
2023/07/08 09:19:57;;;;;;;4.03;2.70;;;27.90;96.30;;;;;;5053613;28;20515;-77
2023/07/08 09:22:42;;;;;;;4.43;3.30;;;27.80;96.60;;;;;;5067279;28;20395;-78
2023/07/08 09:25:53;;;;;;;4.60;3.50;;;27.80;96.70;;;;;;5065284;28;20450;-77
2023/07/08 09:28:19;;;;;;;3.90;3.43;;;28.00;95.80;;;;;;5067795;28;20403;-78
2023/07/08 09:30:51;;;;;;;4.57;3.60;;;27.80;96.40;;;;;;5049352;28;20442;-78
2023/07/08 09:33:17;;;;;;;3.83;3.53;;;28.00;95.20;;;;;;5066829;28;20217;-78
2023/07/08 09:35:47;;;;;;;3.60;3.30;;;28.10;95.10;;;;;;5066559;28;20469;-79
2023/07/08 09:38:20;;;;;;;4.30;3.60;;;28.30;94.40;;;;;;5049628;28;20174;-76
2023/07/08 09:40:53;;;;;;;13.73;4.40;;;28.50;91.50;;;;;;5067422;28;20438;-78
2023/07/08 09:43:25;;;;;;;3.80;3.50;;;28.60;93.90;;;;;;5065803;28;20744;-76
2023/07/08 09:45:55;;;;;;;4.30;3.50;;;28.60;94.30;;;;;;5065186;28;20441;-80
2023/07/08 09:48:24;;;;;;;3.97;3.67;;;28.50;94.20;;;;;;5064423;28;20658;-80
2023/07/08 09:50:53;;;;;;;5.77;3.30;;;28.70;92.50;;;;;;5046920;28;20444;-76
2023/07/08 09:53:19;;;;;;;6.13;3.70;;;28.60;90.50;;;;;;5065793;28;20508;-75
2023/07/08 09:55:45;;;;;;;4.17;3.77;;;28.60;93.00;;;;;;5064813;28;20489;-78
2023/07/08 09:58:27;;;;;;;3.80;3.40;;;28.80;90.60;;;;;;5048488;28;20180;-80
2023/07/08 10:01:00;;;;;;;6.10;3.80;;;29.00;89.70;;;;;;5066541;28;20434;-81
2023/07/08 10:03:32;;;;;;;4.10;3.70;;;29.10;90.70;;;;;;5048669;28;20932;-78
2023/07/08 10:06:02;;;;;;;4.70;3.50;;;29.20;90.80;;;;;;5066243;28;20479;-76
2023/07/08 10:08:42;;;;;;;6.37;4.13;;;29.30;89.70;;;;;;5048460;28;20819;-78
2023/07/08 10:11:27;;;;;;;4.87;4.47;;;29.30;91.20;;;;;;5066182;28;20429;-79
2023/07/08 10:13:57;;;;;;;4.43;3.67;;;29.30;93.00;;;;;;5048587;28;20437;-76
2023/07/08 10:16:24;;;;;;;3.30;3.00;;;29.40;91.70;;;;;;5065905;28;20561;-77
2023/07/08 10:18:50;;;;;;;3.67;3.27;;;29.50;89.90;;;;;;5065910;28;20472;-79
2023/07/08 10:21:43;;;;;;;3.50;3.20;;;29.60;90.60;;;;;;5065570;28;20696;-76
2023/07/08 10:24:30;;;;;;;4.57;4.13;;;29.60;91.10;;;;;;5047682;28;20493;-79
2023/07/08 10:27:22;;;;;;;4.57;3.60;;;29.60;89.70;;;;;;5065271;28;20459;-82
2023/07/08 10:30:11;;;;;;;4.50;3.50;;;29.70;90.50;;;;;;5064499;28;20482;-78
2023/07/08 10:33:14;;;;;;;3.47;3.17;;;29.60;89.10;;;;;;5064931;28;20429;-74
2023/07/08 10:35:57;;;;;;;3.50;3.20;;;29.40;92.30;;;;;;5046365;28;20513;-75
2023/07/08 10:38:42;;;;;;;8.97;3.60;;;29.50;90.90;;;;;;5065006;28;20465;-76
2023/07/08 10:41:46;;;;;;;3.50;3.10;;;29.40;92.70;;;;;;5046370;28;20431;-77
2023/07/08 10:44:37;;;;;;;3.80;3.50;;;29.50;88.90;;;;;;5046926;28;20489;-83
2023/07/08 10:47:33;;;;;;;4.17;3.80;;;29.50;92.40;;;;;;5047527;28;20938;-76
2023/07/08 10:50:40;;;;;;;4.10;3.50;;;29.50;90.00;;;;;;5064457;28;20453;-79
2023/07/08 10:53:37;;;;;;;3.93;3.53;;;29.50;84.10;;;;;;5047346;28;20424;-79
2023/07/08 10:56:20;;;;;;;4.30;3.90;;;29.60;90.80;;;;;;5047775;28;20478;-81
2023/07/08 10:58:49;;;;;;;4.00;3.70;;;29.50;90.20;;;;;;5064832;28;20487;-79
2023/07/08 11:01:53;;;;;;;3.80;3.50;;;29.50;91.40;;;;;;5064890;28;20498;-77
2023/07/08 11:04:40;;;;;;;3.97;3.40;;;29.60;87.40;;;;;;5046368;28;20431;-80
2023/07/08 11:07:27;;;;;;;3.90;2.90;;;29.60;91.40;;;;;;5065390;28;20953;-79
2023/07/08 11:09:58;;;;;;;5.60;3.57;;;29.50;92.90;;;;;;5065823;28;20502;-87
2023/07/08 11:12:33;;;;;;;6.50;3.37;;;29.50;92.50;;;;;;5047524;28;20420;-84
2023/07/08 11:15:07;;;;;;;5.57;3.83;;;29.30;92.80;;;;;;5064899;28;20492;-77
2023/07/08 11:17:42;;;;;;;3.70;3.07;;;29.10;92.30;;;;;;5047939;28;20448;-90
2023/07/08 11:20:33;;;;;;;4.50;3.57;;;29.30;86.40;;;;;;5046535;28;20454;-81
2023/07/08 11:23:21;;;;;;;7.93;3.70;;;29.30;93.60;;;;;;5047527;28;20416;-80
2023/07/08 11:25:50;;;;;;;8.10;3.80;;;29.50;92.10;;;;;;5047271;28;20445;-80
2023/07/08 11:28:20;;;;;;;3.90;3.60;;;29.40;92.10;;;;;;5065531;28;20431;-84
2023/07/08 11:30:49;;;;;;;3.50;3.20;;;29.50;92.20;;;;;;5047627;28;20462;-84
2023/07/08 11:33:19;;;;;;;4.30;4.00;;;29.60;92.30;;;;;;5046994;28;20420;-81
2023/07/08 11:35:49;;;;;;;3.80;3.50;;;29.60;91.90;;;;;;5047202;28;20474;-84
2023/07/08 11:38:20;;;;;;;3.90;3.20;;;29.70;92.10;;;;;;5048180;28;21109;-84
2023/07/08 11:40:56;;;;;;;6.30;3.30;;;29.80;90.50;;;;;;5068577;28;20441;-87
2023/07/08 11:43:25;;;;;;;4.87;4.00;;;29.80;93.20;;;;;;5049951;28;20790;-87
2023/07/08 11:45:55;;;;;;;4.43;3.67;;;29.50;93.80;;;;;;5048884;28;20433;-84
2023/07/08 11:48:24;;;;;;;4.70;3.90;;;29.50;92.60;;;;;;5067676;28;20399;-84
2023/07/08 11:50:51;;;;;;;4.50;4.10;;;29.70;90.00;;;;;;5048713;28;20431;-86
2023/07/08 11:53:29;;;;;;;3.93;3.20;;;29.80;91.90;;;;;;5068308;28;20488;-79
2023/07/08 11:59:13;;;;;;;4.60;3.43;;;29.50;91.70;;;;;;5047941;28;20456;-79
2023/07/08 12:02:05;;;;;;;4.07;3.77;;;29.70;91.20;;;;;;5047765;28;20473;-85
2023/07/08 12:04:36;;;;;;;3.93;3.63;;;29.80;92.70;;;;;;5030404;28;20892;-86
2023/07/08 12:07:40;;;;;;;4.07;3.60;;;29.80;91.10;;;;;;5027260;28;20495;-81
2023/07/08 12:10:15;;;;;;;3.63;3.30;;;29.60;93.60;;;;;;5027146;28;20448;-81
2023/07/08 12:12:43;;;;;;;5.60;3.87;;;29.40;92.50;;;;;;5026785;28;20397;-80
2023/07/08 12:15:12;;;;;;;3.67;3.37;;;29.50;91.00;;;;;;5025551;28;20451;-81
2023/07/08 12:17:39;;;;;;;4.50;3.63;;;29.80;86.30;;;;;;5025449;28;20434;-79
2023/07/08 12:20:17;;;;;;;3.73;3.40;;;30.00;90.10;;;;;;5027541;28;20525;-80
2023/07/08 12:22:43;;;;;;;5.47;3.33;;;30.10;91.10;;;;;;5028746;28;20555;-87
2023/07/08 12:25:18;;;;;;;4.43;4.13;;;30.20;91.50;;;;;;5027038;28;21239;-86
2023/07/08 12:27:46;;;;;;;8.60;3.80;;;30.30;91.00;;;;;;5028616;28;20332;-87
2023/07/08 12:30:13;;;;;;;4.17;3.77;;;30.20;91.70;;;;;;5030528;28;20433;-85
2023/07/08 12:32:40;;;;;;;3.83;3.53;;;30.30;87.80;;;;;;5027246;28;20418;-79
2023/07/08 12:35:22;;;;;;;8.63;4.00;;;30.30;89.10;;;;;;5027225;28;20650;-82
2023/07/08 12:37:48;;;;;;;15.87;5.27;;;30.40;90.20;;;;;;5029448;28;21002;-77
2023/07/08 12:40:14;;;;;;;4.20;3.90;;;30.60;85.20;;;;;;5028537;28;20604;-83
2023/07/08 12:42:40;;;;;;;5.50;3.87;;;30.60;88.50;;;;;;5028023;28;20445;-80
2023/07/08 12:45:25;;;;;;;3.87;3.57;;;30.30;92.10;;;;;;5025232;28;20484;-80
2023/07/08 12:47:51;;;;;;;3.50;3.20;;;30.40;88.00;;;;;;5025077;28;20189;-75
2023/07/08 12:50:18;;;;;;;6.90;4.53;;;30.40;90.20;;;;;;5023791;28;20453;-79
2023/07/08 12:52:46;;;;;;;4.03;3.60;;;30.30;91.00;;;;;;5026630;28;20502;-78
2023/07/08 12:55:13;;;;;;;4.20;3.60;;;30.50;84.60;;;;;;5041474;28;20536;-77
2023/07/08 12:57:42;;;;;;;4.80;4.07;;;30.60;88.40;;;;;;5028388;28;20425;-78
2023/07/08 13:00:36;;;;;;;4.60;3.83;;;30.70;87.60;;;;;;5029057;28;20530;-77
2023/07/08 13:03:18;;;;;;;4.20;3.80;;;30.70;87.10;;;;;;5047702;28;21094;-84
2023/07/08 13:05:44;;;;;;;5.87;4.57;;;30.70;90.30;;;;;;5047769;28;20447;-88